createdAt,value
2019-03-08T00:01:12.232Z,7.70
2019-03-08T00:03:40.767Z,7.70
2019-03-08T00:06:28.647Z,7.70
2019-03-08T00:09:16.566Z,7.80
2019-03-08T00:11:57.629Z,7.80
2019-03-08T00:14:40.231Z,7.80
2019-03-08T00:17:08.751Z,7.80
2019-03-08T00:19:56.645Z,7.90
2019-03-08T00:22:44.605Z,7.90
2019-03-08T00:25:25.522Z,7.90
2019-03-08T00:28:06.502Z,7.90
2019-03-08T00:30:47.415Z,8.00
2019-03-08T00:33:15.952Z,7.90
2019-03-08T00:36:03.835Z,8.00
2019-03-08T00:38:45.064Z,8.10
2019-03-08T00:41:13.598Z,8.10
2019-03-08T00:44:01.472Z,8.00
2019-03-08T00:46:49.561Z,8.00
2019-03-08T00:49:37.418Z,7.90
2019-03-08T00:52:18.232Z,7.90
2019-03-08T00:54:59.218Z,7.90
2019-03-08T00:57:40.257Z,8.00
2019-03-08T01:00:22.864Z,8.00
2019-03-08T01:03:03.802Z,8.00
2019-03-08T01:05:44.786Z,8.00
2019-03-08T01:08:25.473Z,8.00
2019-03-08T01:11:06.254Z,8.00
2019-03-08T01:13:46.824Z,8.00
2019-03-08T01:16:15.416Z,8.10
2019-03-08T01:19:03.231Z,8.10
2019-03-08T01:21:31.773Z,8.20
2019-03-08T01:24:19.654Z,8.10
2019-03-08T01:26:48.127Z,8.00
2019-03-08T01:29:35.998Z,8.10
2019-03-08T01:32:16.354Z,8.00
2019-03-08T01:34:44.961Z,8.10
2019-03-08T01:37:32.820Z,8.10
2019-03-08T01:40:13.482Z,8.10
2019-03-08T01:42:54.162Z,8.10
2019-03-08T01:45:34.840Z,8.10
2019-03-08T01:48:15.962Z,8.10
2019-03-08T01:50:44.491Z,8.20
2019-03-08T01:53:32.342Z,8.10
2019-03-08T01:56:20.214Z,8.20
2019-03-08T01:59:01.264Z,8.10
2019-03-08T02:01:29.876Z,8.00
2019-03-08T02:04:18.105Z,8.00
2019-03-08T02:12:35.619Z,8.20
2019-03-08T02:15:16.449Z,8.10
2019-03-08T02:17:57.281Z,8.10
2019-03-08T02:20:38.026Z,8.10
2019-03-08T02:23:18.460Z,8.10
2019-03-08T02:25:59.449Z,8.10
2019-03-08T02:28:40.148Z,8.10
2019-03-08T02:31:20.962Z,8.00
2019-03-08T02:33:49.728Z,8.00
2019-03-08T02:36:37.541Z,8.00
2019-03-08T02:39:25.418Z,8.00
2019-03-08T02:42:07.749Z,8.00
2019-03-08T02:44:48.693Z,8.10
2019-03-08T02:47:29.124Z,8.00
2019-03-08T02:50:10.199Z,7.90
2019-03-08T02:52:51.223Z,7.90
2019-03-08T02:55:31.712Z,8.10
2019-03-08T02:58:00.236Z,8.10
2019-03-08T03:00:48.105Z,8.00
2019-03-08T03:03:36.268Z,8.00
2019-03-08T03:06:16.980Z,8.10
2019-03-08T03:08:58.334Z,8.00
2019-03-08T03:11:38.978Z,8.00
2019-03-08T03:14:20.063Z,7.90
2019-03-08T03:17:00.925Z,8.00
2019-03-08T03:19:42.063Z,8.00
2019-03-08T03:22:22.948Z,8.00
2019-03-08T03:25:03.873Z,8.00
2019-03-08T03:27:44.524Z,7.90
2019-03-08T03:30:25.430Z,7.90
2019-03-08T03:33:06.636Z,8.00
2019-03-08T03:35:47.337Z,8.00
2019-03-08T03:38:28.402Z,7.90
2019-03-08T03:41:09.002Z,8.00
2019-03-08T03:43:49.731Z,8.00
2019-03-08T03:46:31.069Z,8.00
2019-03-08T03:49:11.884Z,8.00
2019-03-08T03:51:52.698Z,8.00
2019-03-08T03:54:33.682Z,8.00
2019-03-08T03:57:14.664Z,8.10
2019-03-08T03:59:55.149Z,8.00
2019-03-08T04:02:36.246Z,8.10
2019-03-08T04:05:17.469Z,8.00
2019-03-08T04:07:58.377Z,7.90
2019-03-08T04:10:39.113Z,8.00
2019-03-08T04:13:20.151Z,8.00
2019-03-08T04:16:00.930Z,7.90
2019-03-08T04:18:41.629Z,8.00
2019-03-08T04:21:22.163Z,8.00
2019-03-08T04:24:03.048Z,8.00
2019-03-08T04:26:43.700Z,8.00
2019-03-08T04:29:24.539Z,8.00
2019-03-08T04:32:05.533Z,8.10
2019-03-08T04:34:34.067Z,8.00
2019-03-08T04:37:21.939Z,8.00
2019-03-08T04:40:02.112Z,7.90
2019-03-08T04:42:42.600Z,7.90
2019-03-08T04:45:23.544Z,7.80
2019-03-08T04:48:04.200Z,7.80
2019-03-08T04:50:44.971Z,7.80
2019-03-08T04:53:13.775Z,7.80
2019-03-08T04:56:01.682Z,7.80
2019-03-08T04:58:42.381Z,7.90
2019-03-08T05:01:23.202Z,7.80
2019-03-08T05:04:04.145Z,7.90
2019-03-08T05:06:45.032Z,7.80
2019-03-08T05:09:25.583Z,7.80
2019-03-08T05:12:06.426Z,7.90
2019-03-08T05:14:46.972Z,7.90
2019-03-08T05:17:27.696Z,7.80
2019-03-08T05:20:08.435Z,7.90
2019-03-08T05:22:49.328Z,8.00
2019-03-08T05:25:30.024Z,7.90
2019-03-08T05:28:10.910Z,7.90
2019-03-08T05:30:51.798Z,7.80
2019-03-08T05:33:32.795Z,7.80
2019-03-08T05:36:13.417Z,7.90
2019-03-08T05:38:54.294Z,8.00
2019-03-08T05:41:35.968Z,7.90
2019-03-08T05:44:04.503Z,7.90
2019-03-08T05:46:52.366Z,7.90
2019-03-08T05:49:33.681Z,7.90
2019-03-08T05:52:14.357Z,7.80
2019-03-08T05:54:55.001Z,7.70
2019-03-08T05:57:35.506Z,7.70
2019-03-08T06:00:17.984Z,7.70
2019-03-08T06:02:58.788Z,7.80
2019-03-08T06:05:39.426Z,7.70
2019-03-08T06:08:20.563Z,7.60
2019-03-08T06:11:01.504Z,7.60
2019-03-08T06:13:42.390Z,7.70
2019-03-08T06:16:23.058Z,7.70
2019-03-08T06:19:03.854Z,7.60
2019-03-08T06:21:44.711Z,7.60
2019-03-08T06:24:25.266Z,7.60
2019-03-08T06:27:06.126Z,7.60
2019-03-08T06:29:47.119Z,7.60
2019-03-08T06:32:28.078Z,7.50
2019-03-08T06:35:08.772Z,7.50
2019-03-08T06:37:49.720Z,7.40
2019-03-08T06:40:30.478Z,7.50
2019-03-08T06:43:11.050Z,7.50
2019-03-08T06:45:52.007Z,7.40
2019-03-08T06:48:20.511Z,7.60
2019-03-08T06:51:08.325Z,7.50
2019-03-08T06:53:48.998Z,7.50
2019-03-08T06:56:29.604Z,7.50
2019-03-08T06:59:11.976Z,7.50
2019-03-08T07:01:53.073Z,7.50
2019-03-08T07:04:33.573Z,7.60
2019-03-08T07:07:14.275Z,7.60
2019-03-08T07:09:55.388Z,7.60
2019-03-08T07:12:36.244Z,7.70
2019-03-08T07:15:17.147Z,7.70
2019-03-08T07:17:57.997Z,7.90
2019-03-08T07:20:58.221Z,7.90
2019-03-08T07:27:05.209Z,7.70
2019-03-08T07:32:54.778Z,7.80
2019-03-08T07:35:55.104Z,7.80
2019-03-08T07:38:54.491Z,7.90
2019-03-08T07:41:39.394Z,8.00
2019-03-08T07:44:39.026Z,8.00
2019-03-08T07:47:24.107Z,8.00
2019-03-08T07:50:09.667Z,8.10
2019-03-08T07:52:57.392Z,8.10
2019-03-08T07:56:06.293Z,8.20
2019-03-08T07:59:06.513Z,8.20
2019-03-08T08:01:51.499Z,8.30
2019-03-08T08:04:51.697Z,8.20
2019-03-08T08:07:37.431Z,8.30
2019-03-08T08:16:19.592Z,8.40
2019-03-08T08:19:04.988Z,8.50
2019-03-08T08:22:05.359Z,8.60
2019-03-08T08:27:54.562Z,9.20
2019-03-08T08:30:36.932Z,9.60
2019-03-08T08:33:20.010Z,10.20
2019-03-08T08:36:08.022Z,10.60
2019-03-08T08:41:59.266Z,11.00
2019-03-08T08:44:41.887Z,10.60
2019-03-08T08:47:29.636Z,10.60
2019-03-08T08:50:36.725Z,11.00
2019-03-08T08:53:36.959Z,10.30
2019-03-08T08:56:19.100Z,9.70
2019-03-08T08:59:04.521Z,9.60
2019-03-08T09:01:50.756Z,9.60
2019-03-08T09:04:38.488Z,9.80
2019-03-08T09:07:20.948Z,10.90
2019-03-08T09:10:05.578Z,11.10
2019-03-08T09:12:50.271Z,10.60
2019-03-08T09:15:49.877Z,10.10
2019-03-08T09:18:32.674Z,10.50
2019-03-08T09:21:20.526Z,11.60
2019-03-08T09:27:00.869Z,11.30
2019-03-08T09:29:48.587Z,11.30
2019-03-08T09:32:59.209Z,11.50
2019-03-08T09:35:39.834Z,11.40
2019-03-08T09:38:40.164Z,11.50
2019-03-08T09:41:39.865Z,11.30
2019-03-08T09:44:24.908Z,12.00
2019-03-08T09:47:24.902Z,12.10
2019-03-08T09:50:25.072Z,11.30
2019-03-08T09:53:25.517Z,12.20
2019-03-08T09:56:08.576Z,12.40
2019-03-08T09:58:49.077Z,12.90
2019-03-08T10:01:36.936Z,12.60
2019-03-08T10:04:36.966Z,12.00
2019-03-08T10:07:19.765Z,11.40
2019-03-08T10:10:02.517Z,11.50
2019-03-08T10:13:02.817Z,12.60
2019-03-08T10:15:50.588Z,13.50
2019-03-08T10:18:57.663Z,12.60
2019-03-08T10:21:45.382Z,12.10
2019-03-08T10:24:52.466Z,12.20
2019-03-08T10:27:52.763Z,12.80
2019-03-08T10:30:37.877Z,12.10
2019-03-08T10:33:46.299Z,12.00
2019-03-08T10:36:39.422Z,11.80
2019-03-08T10:39:24.353Z,11.40
2019-03-08T10:42:07.018Z,11.40
2019-03-08T10:44:52.622Z,11.70
2019-03-08T10:50:48.990Z,11.90
2019-03-08T10:59:27.746Z,10.90
2019-03-08T11:02:11.412Z,11.40
2019-03-08T11:04:59.273Z,11.00
2019-03-08T11:10:55.544Z,10.60
2019-03-08T11:14:02.641Z,10.60
2019-03-08T11:16:44.642Z,10.80
2019-03-08T11:19:32.364Z,11.00
2019-03-08T11:22:39.459Z,11.30
2019-03-08T11:25:22.012Z,11.20
2019-03-08T11:28:07.513Z,10.90
2019-03-08T11:30:54.232Z,11.00
2019-03-08T11:33:36.926Z,11.10
2019-03-08T11:36:37.023Z,11.10
2019-03-08T11:39:36.716Z,11.20
2019-03-08T11:42:37.237Z,11.10
2019-03-08T11:45:37.597Z,11.40
2019-03-08T11:48:20.249Z,12.00
2019-03-08T11:51:02.972Z,12.70
2019-03-08T11:53:45.699Z,12.80
2019-03-08T11:56:46.083Z,13.30
2019-03-08T11:59:34.072Z,13.20
2019-03-08T12:02:41.361Z,12.60
2019-03-08T12:11:30.201Z,13.50
2019-03-08T12:14:12.096Z,13.10
2019-03-08T12:17:12.485Z,11.70
2019-03-08T12:19:57.980Z,11.60
2019-03-08T12:22:45.723Z,11.60
2019-03-08T12:28:54.400Z,12.10
2019-03-08T12:31:36.426Z,12.60
2019-03-08T12:34:21.235Z,12.00
2019-03-08T12:37:21.468Z,11.60
2019-03-08T12:40:02.014Z,11.10
2019-03-08T12:43:09.087Z,11.20
2019-03-08T12:46:08.827Z,11.30
2019-03-08T12:48:50.961Z,11.30
2019-03-08T12:51:51.185Z,11.30
2019-03-08T12:54:50.865Z,11.40
2019-03-08T12:57:33.023Z,11.40
2019-03-08T13:00:15.777Z,11.70
2019-03-08T13:03:16.101Z,11.90
2019-03-08T13:12:07.468Z,11.90
2019-03-08T13:14:48.155Z,11.50
2019-03-08T13:17:28.802Z,11.60
2019-03-08T13:20:09.552Z,11.60
2019-03-08T13:22:51.916Z,12.00
2019-03-08T13:25:33.553Z,12.20
2019-03-08T13:28:14.630Z,12.20
2019-03-08T13:30:55.418Z,12.10
2019-03-08T13:33:36.285Z,11.40
2019-03-08T13:36:16.813Z,11.60
2019-03-08T13:41:40.264Z,11.60
2019-03-08T13:44:28.127Z,11.70
2019-03-08T13:47:10.849Z,11.60
2019-03-08T13:49:51.647Z,11.40
2019-03-08T13:52:32.241Z,11.50
2019-03-08T13:55:13.082Z,11.80
2019-03-08T13:57:53.503Z,11.90
2019-03-08T14:00:33.973Z,11.90
2019-03-08T14:03:14.601Z,11.80
2019-03-08T14:05:55.236Z,11.80
2019-03-08T14:08:35.656Z,11.40
2019-03-08T14:11:04.588Z,11.40
2019-03-08T14:13:52.398Z,11.50
2019-03-08T14:16:40.269Z,11.30
2019-03-08T14:19:21.204Z,11.00
2019-03-08T14:22:02.231Z,10.70
2019-03-08T14:24:30.789Z,10.70
2019-03-08T14:27:18.658Z,10.80
2019-03-08T14:33:01.568Z,11.60
2019-03-08T14:35:40.592Z,11.60
2019-03-08T14:38:21.105Z,11.30
2019-03-08T14:41:08.842Z,11.50
2019-03-08T14:46:59.965Z,11.50
2019-03-08T14:49:40.959Z,11.10
2019-03-08T14:52:22.609Z,10.70
2019-03-08T14:55:03.896Z,10.50
2019-03-08T14:57:44.484Z,10.30
2019-03-08T15:00:28.622Z,10.10
2019-03-08T15:03:05.756Z,10.10
2019-03-08T15:05:34.292Z,10.10
2019-03-08T15:08:17.873Z,10.10
2019-03-08T15:10:59.112Z,10.10
2019-03-08T15:13:39.926Z,10.10
2019-03-08T15:16:20.571Z,10.00
2019-03-08T15:19:03.774Z,9.80
2019-03-08T15:21:48.427Z,9.80
2019-03-08T15:24:26.783Z,9.90
2019-03-08T15:27:07.633Z,9.90
2019-03-08T15:29:54.426Z,9.80
2019-03-08T15:32:30.509Z,9.80
2019-03-08T15:35:11.438Z,9.80
2019-03-08T15:37:52.138Z,9.90
2019-03-08T15:40:33.543Z,9.80
2019-03-08T15:43:14.888Z,9.70
2019-03-08T15:45:55.972Z,9.70
2019-03-08T15:48:36.783Z,9.70
2019-03-08T15:51:20.920Z,9.70
2019-03-08T15:53:59.996Z,9.60
2019-03-08T15:56:40.663Z,9.70
2019-03-08T15:59:21.510Z,9.60
2019-03-08T16:02:06.203Z,9.60
2019-03-08T16:04:45.929Z,9.50
2019-03-08T16:07:27.345Z,9.60
2019-03-08T16:10:07.773Z,9.60
2019-03-08T16:12:48.593Z,9.70
2019-03-08T16:15:29.715Z,9.70
2019-03-08T16:18:10.326Z,9.70
2019-03-08T16:20:51.041Z,9.70
2019-03-08T16:23:31.484Z,9.70
2019-03-08T16:26:12.097Z,9.80
2019-03-08T16:28:53.201Z,9.70
2019-03-08T16:34:27.407Z,9.80
2019-03-08T16:37:09.988Z,10.10
2019-03-08T16:39:55.358Z,10.00
2019-03-08T16:42:41.028Z,9.90
2019-03-08T16:45:41.362Z,10.00
2019-03-08T16:48:26.964Z,10.00
2019-03-08T16:51:30.263Z,9.90
2019-03-08T16:54:28.749Z,9.90
2019-03-08T16:57:28.303Z,9.90
2019-03-08T17:00:13.855Z,9.80
2019-03-08T17:02:59.698Z,9.70
2019-03-08T17:05:59.973Z,9.80
2019-03-08T17:08:45.434Z,9.80
2019-03-08T17:11:28.043Z,9.70
2019-03-08T17:17:35.902Z,9.60
2019-03-08T17:20:18.529Z,9.70
2019-03-08T17:25:54.594Z,9.60
2019-03-08T17:28:40.009Z,9.60
2019-03-08T17:31:22.444Z,9.60
2019-03-08T17:34:22.842Z,9.60
2019-03-08T17:37:23.269Z,9.50
2019-03-08T17:40:06.233Z,9.50
2019-03-08T17:43:06.497Z,9.40
2019-03-08T17:48:56.480Z,9.50
2019-03-08T17:54:46.363Z,9.40
2019-03-08T17:57:29.013Z,9.40
2019-03-08T18:00:14.465Z,9.40
2019-03-08T18:03:14.138Z,9.40
2019-03-08T18:06:13.628Z,9.30
2019-03-08T18:08:55.576Z,9.30
2019-03-08T18:11:56.218Z,9.30
2019-03-08T18:14:56.335Z,9.40
2019-03-08T18:17:41.765Z,9.40
2019-03-08T18:20:23.748Z,9.40
2019-03-08T18:23:06.384Z,9.30
2019-03-08T18:25:52.056Z,9.30
2019-03-08T18:28:37.731Z,9.20
2019-03-08T18:31:20.205Z,9.30
2019-03-08T18:34:03.072Z,9.30
2019-03-08T18:36:48.597Z,9.20
2019-03-08T18:39:48.883Z,9.30
2019-03-08T18:42:31.667Z,9.20
2019-03-08T18:45:13.891Z,9.20
2019-03-08T18:48:14.356Z,9.20
2019-03-08T18:50:59.179Z,9.20
2019-03-08T18:53:59.697Z,9.20
2019-03-08T18:56:42.482Z,9.10
2019-03-08T18:59:25.030Z,9.20
2019-03-08T19:02:25.400Z,9.10
2019-03-08T19:05:25.204Z,9.10
2019-03-08T19:08:25.365Z,9.20
2019-03-08T19:14:14.748Z,9.10
2019-03-08T19:20:10.953Z,9.00
2019-03-08T19:26:07.219Z,9.00
2019-03-08T19:34:57.300Z,9.00
2019-03-08T19:40:52.022Z,9.00
2019-03-08T19:43:52.358Z,9.00
2019-03-08T19:46:37.513Z,9.00
2019-03-08T19:49:22.913Z,9.00
2019-03-08T19:52:22.465Z,9.00
2019-03-08T19:58:17.215Z,9.00
2019-03-08T20:04:13.441Z,9.00
2019-03-08T20:07:01.174Z,9.00
2019-03-08T20:10:08.197Z,9.00
2019-03-08T20:12:55.872Z,9.00
2019-03-08T20:18:33.530Z,9.00
2019-03-08T20:21:16.164Z,9.00
2019-03-08T20:24:16.537Z,9.00
2019-03-08T20:27:16.088Z,8.90
2019-03-08T20:30:15.742Z,9.00
2019-03-08T20:33:15.496Z,8.90
2019-03-08T20:36:14.879Z,8.80
2019-03-08T20:41:56.330Z,8.60
2019-03-08T20:45:03.578Z,8.40
2019-03-08T20:47:43.942Z,8.10
2019-03-08T20:50:24.553Z,7.80
2019-03-08T20:53:05.520Z,7.60
2019-03-08T20:55:33.962Z,7.60
2019-03-08T20:58:21.847Z,7.50
2019-03-08T21:01:09.700Z,7.50
2019-03-08T21:03:39.963Z,7.50
2019-03-08T21:06:27.772Z,7.50
2019-03-08T21:08:56.239Z,7.50
2019-03-08T21:11:44.115Z,7.40
2019-03-08T21:14:12.559Z,7.40
2019-03-08T21:17:00.605Z,7.40
2019-03-08T21:19:48.436Z,7.50
2019-03-08T21:22:28.761Z,7.50
2019-03-08T21:25:09.732Z,7.50
2019-03-08T21:27:50.874Z,7.50
2019-03-08T21:30:31.730Z,7.40
2019-03-08T21:33:12.380Z,7.40
2019-03-08T21:35:53.040Z,7.40
2019-03-08T21:38:34.004Z,7.50
2019-03-08T21:41:14.819Z,7.40
2019-03-08T21:43:55.752Z,7.50
2019-03-08T21:46:25.165Z,7.40
2019-03-08T21:49:12.972Z,7.50
2019-03-08T21:51:54.166Z,7.40
2019-03-08T21:54:35.347Z,7.40
2019-03-08T21:57:03.956Z,7.40
2019-03-08T22:00:12.530Z,7.30
2019-03-08T22:03:00.561Z,7.30
2019-03-08T22:05:42.689Z,7.30
2019-03-08T22:08:23.674Z,7.30
2019-03-08T22:11:05.921Z,7.30
2019-03-08T22:13:47.083Z,7.20
2019-03-08T22:16:15.665Z,7.20
2019-03-08T22:19:03.722Z,7.10
2019-03-08T22:24:43.637Z,7.20
2019-03-08T22:27:24.353Z,7.20
2019-03-08T22:30:05.587Z,7.20
2019-03-08T22:32:46.054Z,7.20
2019-03-08T22:35:28.273Z,7.20
2019-03-08T22:38:08.751Z,7.20
2019-03-08T22:40:49.207Z,7.30
2019-03-08T22:43:17.673Z,7.40
2019-03-08T22:46:05.479Z,7.40
2019-03-08T22:48:53.414Z,7.40
2019-03-08T22:51:34.162Z,7.40
2019-03-08T22:54:15.195Z,7.40
2019-03-08T22:56:55.843Z,7.40
2019-03-08T22:59:24.947Z,7.40
2019-03-08T23:02:13.172Z,7.40
2019-03-08T23:05:02.937Z,7.50
2019-03-08T23:07:43.490Z,7.40
2019-03-08T23:10:24.249Z,7.50
2019-03-08T23:13:05.256Z,7.50
2019-03-08T23:15:45.928Z,7.50
2019-03-08T23:18:26.937Z,7.50
2019-03-08T23:21:07.522Z,7.40
2019-03-08T23:23:36.425Z,7.40
2019-03-08T23:26:24.310Z,7.40
2019-03-08T23:29:10.561Z,7.40
2019-03-08T23:31:55.949Z,7.40
2019-03-08T23:34:24.487Z,7.40
2019-03-08T23:37:12.305Z,7.50
2019-03-08T23:39:40.824Z,7.50
2019-03-08T23:42:28.683Z,7.50
2019-03-08T23:45:09.713Z,7.50
2019-03-08T23:47:50.604Z,7.50
2019-03-08T23:50:31.633Z,7.50
2019-03-08T23:53:12.246Z,7.50
2019-03-08T23:55:53.413Z,7.50
2019-03-08T23:58:34.193Z,7.50
